sensor_id;sensor_type;location;lat;lon;timestamp;P1;durP1;ratioP1;P2;durP2;ratioP2
908;SDS011;441;51.192;6.788;2022-10-16T07:14:14;0.90;;;0.90;;
908;SDS011;441;51.192;6.788;2022-10-16T07:16:43;1.10;;;0.80;;
908;SDS011;441;51.192;6.788;2022-10-16T07:19:10;0.77;;;0.77;;
908;SDS011;441;51.192;6.788;2022-10-16T07:21:40;1.43;;;1.03;;
908;SDS011;441;51.192;6.788;2022-10-16T07:24:10;0.93;;;0.93;;
908;SDS011;441;51.192;6.788;2022-10-16T07:26:38;1.13;;;1.13;;
908;SDS011;441;51.192;6.788;2022-10-16T07:29:06;0.90;;;0.90;;
908;SDS011;441;51.192;6.788;2022-10-16T07:31:34;0.80;;;0.80;;
908;SDS011;441;51.192;6.788;2022-10-16T07:34:04;0.60;;;0.60;;
908;SDS011;441;51.192;6.788;2022-10-16T07:36:31;0.70;;;0.70;;
908;SDS011;441;51.192;6.788;2022-10-16T07:38:58;1.00;;;1.00;;
908;SDS011;441;51.192;6.788;2022-10-16T07:41:25;0.97;;;0.97;;
908;SDS011;441;51.192;6.788;2022-10-16T07:43:52;1.00;;;1.00;;
908;SDS011;441;51.192;6.788;2022-10-16T07:46:20;0.83;;;0.83;;
908;SDS011;441;51.192;6.788;2022-10-16T07:48:50;1.43;;;1.00;;
908;SDS011;441;51.192;6.788;2022-10-16T07:51:18;0.90;;;0.87;;
908;SDS011;441;51.192;6.788;2022-10-16T07:53:45;1.10;;;1.00;;
908;SDS011;441;51.192;6.788;2022-10-16T07:56:12;2.07;;;0.90;;
908;SDS011;441;51.192;6.788;2022-10-16T07:58:40;0.70;;;0.70;;
908;SDS011;441;51.192;6.788;2022-10-16T08:01:08;1.00;;;1.00;;
908;SDS011;441;51.192;6.788;2022-10-16T08:03:35;1.13;;;1.03;;
908;SDS011;441;51.192;6.788;2022-10-16T08:06:04;1.10;;;1.10;;
908;SDS011;441;51.192;6.788;2022-10-16T08:08:31;1.03;;;1.00;;
908;SDS011;441;51.192;6.788;2022-10-16T08:10:58;1.40;;;1.30;;
908;SDS011;441;51.192;6.788;2022-10-16T08:13:25;1.13;;;1.13;;
908;SDS011;441;51.192;6.788;2022-10-16T08:15:53;0.60;;;0.60;;
908;SDS011;441;51.192;6.788;2022-10-16T08:18:21;0.80;;;0.77;;
908;SDS011;441;51.192;6.788;2022-10-16T08:20:54;1.83;;;1.73;;
908;SDS011;441;51.192;6.788;2022-10-16T08:23:23;0.90;;;0.90;;
908;SDS011;441;51.192;6.788;2022-10-16T08:25:51;1.03;;;0.73;;
908;SDS011;441;51.192;6.788;2022-10-16T08:28:18;0.80;;;0.80;;
908;SDS011;441;51.192;6.788;2022-10-16T08:30:45;0.90;;;0.70;;
908;SDS011;441;51.192;6.788;2022-10-16T08:33:12;0.93;;;0.80;;
908;SDS011;441;51.192;6.788;2022-10-16T08:35:39;0.80;;;0.80;;
908;SDS011;441;51.192;6.788;2022-10-16T08:38:06;1.73;;;1.30;;
908;SDS011;441;51.192;6.788;2022-10-16T08:40:35;0.90;;;0.90;;
908;SDS011;441;51.192;6.788;2022-10-16T08:46:01;0.77;;;0.77;;
908;SDS011;441;51.192;6.788;2022-10-16T08:48:45;1.00;;;0.90;;
908;SDS011;441;51.192;6.788;2022-10-16T08:51:16;1.60;;;0.97;;
908;SDS011;441;51.192;6.788;2022-10-16T08:53:49;0.80;;;0.80;;
908;SDS011;441;51.192;6.788;2022-10-16T08:56:21;1.27;;;1.27;;
908;SDS011;441;51.192;6.788;2022-10-16T08:58:49;1.20;;;1.20;;
908;SDS011;441;51.192;6.788;2022-10-16T09:01:18;1.42;;;1.30;;
908;SDS011;441;51.192;6.788;2022-10-16T09:03:57;2.20;;;2.00;;
908;SDS011;441;51.192;6.788;2022-10-16T09:06:45;8.83;;;2.70;;
908;SDS011;441;51.192;6.788;2022-10-16T09:09:20;8.40;;;3.20;;
908;SDS011;441;51.192;6.788;2022-10-16T09:12:07;6.00;;;2.73;;
908;SDS011;441;51.192;6.788;2022-10-16T09:14:52;8.57;;;3.47;;
908;SDS011;441;51.192;6.788;2022-10-16T09:17:30;5.53;;;3.00;;
908;SDS011;441;51.192;6.788;2022-10-16T09:20:12;5.53;;;2.87;;
908;SDS011;441;51.192;6.788;2022-10-16T09:22:45;4.97;;;2.63;;
908;SDS011;441;51.192;6.788;2022-10-16T09:25:13;4.37;;;2.73;;
908;SDS011;441;51.192;6.788;2022-10-16T09:27:44;4.13;;;2.07;;
908;SDS011;441;51.192;6.788;2022-10-16T09:30:14;5.97;;;3.10;;
908;SDS011;441;51.192;6.788;2022-10-16T09:32:43;3.50;;;2.40;;
908;SDS011;441;51.192;6.788;2022-10-16T09:35:13;4.33;;;2.90;;
908;SDS011;441;51.192;6.788;2022-10-16T09:37:42;4.53;;;2.60;;
908;SDS011;441;51.192;6.788;2022-10-16T09:40:13;5.67;;;2.70;;
908;SDS011;441;51.192;6.788;2022-10-16T09:42:52;6.80;;;2.87;;
908;SDS011;441;51.192;6.788;2022-10-16T09:45:23;4.93;;;3.07;;
908;SDS011;441;51.192;6.788;2022-10-16T09:47:50;3.23;;;2.10;;
908;SDS011;441;51.192;6.788;2022-10-16T09:50:21;5.57;;;2.00;;
908;SDS011;441;51.192;6.788;2022-10-16T09:53:02;4.77;;;2.20;;
908;SDS011;441;51.192;6.788;2022-10-16T09:55:34;2.20;;;2.00;;
908;SDS011;441;51.192;6.788;2022-10-16T09:58:02;7.50;;;2.90;;
908;SDS011;441;51.192;6.788;2022-10-16T10:00:38;8.73;;;2.77;;
908;SDS011;441;51.192;6.788;2022-10-16T10:03:15;2.53;;;2.20;;
908;SDS011;441;51.192;6.788;2022-10-16T10:05:59;2.80;;;2.40;;
908;SDS011;441;51.192;6.788;2022-10-16T10:08:30;3.20;;;2.30;;
908;SDS011;441;51.192;6.788;2022-10-16T10:10:56;2.03;;;1.83;;
908;SDS011;441;51.192;6.788;2022-10-16T10:13:25;3.90;;;1.67;;
908;SDS011;441;51.192;6.788;2022-10-16T10:15:52;2.33;;;1.87;;
908;SDS011;441;51.192;6.788;2022-10-16T10:18:20;2.90;;;1.93;;
908;SDS011;441;51.192;6.788;2022-10-16T10:20:56;1.73;;;1.43;;
908;SDS011;441;51.192;6.788;2022-10-16T10:23:25;2.60;;;1.80;;
908;SDS011;441;51.192;6.788;2022-10-16T10:25:53;2.53;;;1.83;;
908;SDS011;441;51.192;6.788;2022-10-16T10:28:32;4.00;;;1.97;;
908;SDS011;441;51.192;6.788;2022-10-16T10:31:20;1.73;;;1.63;;
908;SDS011;441;51.192;6.788;2022-10-16T10:33:52;1.53;;;1.30;;
908;SDS011;441;51.192;6.788;2022-10-16T10:36:28;2.60;;;1.37;;
908;SDS011;441;51.192;6.788;2022-10-16T10:38:58;2.20;;;1.60;;
908;SDS011;441;51.192;6.788;2022-10-16T10:44:51;1.70;;;1.60;;
908;SDS011;441;51.192;6.788;2022-10-16T10:47:43;2.40;;;2.20;;
908;SDS011;441;51.192;6.788;2022-10-16T10:50:23;1.87;;;1.60;;
908;SDS011;441;51.192;6.788;2022-10-16T10:52:58;2.57;;;1.60;;
908;SDS011;441;51.192;6.788;2022-10-16T16:11:41;0.60;;;0.60;;
908;SDS011;441;51.192;6.788;2022-10-16T16:14:09;0.90;;;0.90;;
908;SDS011;441;51.192;6.788;2022-10-16T16:16:38;0.80;;;0.80;;
908;SDS011;441;51.192;6.788;2022-10-16T16:19:06;1.77;;;0.77;;
908;SDS011;441;51.192;6.788;2022-10-16T16:21:34;1.30;;;1.20;;
908;SDS011;441;51.192;6.788;2022-10-16T16:24:01;0.67;;;0.63;;
908;SDS011;441;51.192;6.788;2022-10-16T16:26:32;1.10;;;1.00;;
908;SDS011;441;51.192;6.788;2022-10-16T16:29:03;0.73;;;0.73;;
908;SDS011;441;51.192;6.788;2022-10-16T16:31:30;0.80;;;0.80;;
908;SDS011;441;51.192;6.788;2022-10-16T16:33:58;0.97;;;0.97;;
908;SDS011;441;51.192;6.788;2022-10-16T16:36:25;1.03;;;0.83;;
908;SDS011;441;51.192;6.788;2022-10-16T16:38:52;1.10;;;1.03;;
908;SDS011;441;51.192;6.788;2022-10-16T16:41:19;1.20;;;1.00;;
908;SDS011;441;51.192;6.788;2022-10-16T16:43:48;0.70;;;0.70;;
908;SDS011;441;51.192;6.788;2022-10-16T16:46:17;0.87;;;0.87;;
908;SDS011;441;51.192;6.788;2022-10-16T16:48:45;1.17;;;1.07;;
908;SDS011;441;51.192;6.788;2022-10-16T16:51:15;1.27;;;0.67;;
908;SDS011;441;51.192;6.788;2022-10-16T16:53:45;0.57;;;0.57;;
908;SDS011;441;51.192;6.788;2022-10-16T16:56:13;1.13;;;1.13;;
908;SDS011;441;51.192;6.788;2022-10-16T16:58:40;0.80;;;0.80;;
908;SDS011;441;51.192;6.788;2022-10-16T17:01:09;1.10;;;1.10;;
908;SDS011;441;51.192;6.788;2022-10-16T17:03:38;1.20;;;1.10;;
908;SDS011;441;51.192;6.788;2022-10-16T17:06:09;1.20;;;0.80;;
908;SDS011;441;51.192;6.788;2022-10-16T17:08:37;0.77;;;0.70;;
908;SDS011;441;51.192;6.788;2022-10-16T17:11:05;1.00;;;0.90;;
908;SDS011;441;51.192;6.788;2022-10-16T17:13:37;1.13;;;0.80;;
908;SDS011;441;51.192;6.788;2022-10-16T17:16:05;0.80;;;0.80;;
908;SDS011;441;51.192;6.788;2022-10-16T17:18:32;1.27;;;0.90;;
908;SDS011;441;51.192;6.788;2022-10-16T17:21:02;0.80;;;0.80;;
908;SDS011;441;51.192;6.788;2022-10-16T17:23:30;0.97;;;0.87;;
908;SDS011;441;51.192;6.788;2022-10-16T17:26:02;2.00;;;0.90;;
908;SDS011;441;51.192;6.788;2022-10-16T17:28:30;1.40;;;1.20;;
908;SDS011;441;51.192;6.788;2022-10-16T17:31:05;2.30;;;1.70;;
908;SDS011;441;51.192;6.788;2022-10-16T17:33:33;4.13;;;1.73;;
908;SDS011;441;51.192;6.788;2022-10-16T17:36:02;1.63;;;1.50;;
908;SDS011;441;51.192;6.788;2022-10-16T17:38:29;2.80;;;1.20;;
908;SDS011;441;51.192;6.788;2022-10-16T17:40:57;2.17;;;1.50;;
908;SDS011;441;51.192;6.788;2022-10-16T17:43:24;1.70;;;1.60;;
908;SDS011;441;51.192;6.788;2022-10-16T17:45:51;1.20;;;1.10;;
908;SDS011;441;51.192;6.788;2022-10-16T17:48:18;1.00;;;0.80;;
908;SDS011;441;51.192;6.788;2022-10-16T17:50:45;3.33;;;1.43;;
908;SDS011;441;51.192;6.788;2022-10-16T17:53:13;2.93;;;2.00;;
908;SDS011;441;51.192;6.788;2022-10-16T17:55:40;1.70;;;1.53;;
908;SDS011;441;51.192;6.788;2022-10-16T17:58:08;2.60;;;1.40;;
908;SDS011;441;51.192;6.788;2022-10-16T18:00:35;7.20;;;1.50;;
908;SDS011;441;51.192;6.788;2022-10-16T18:03:02;1.93;;;1.50;;
908;SDS011;441;51.192;6.788;2022-10-16T18:05:29;2.97;;;2.03;;
908;SDS011;441;51.192;6.788;2022-10-16T18:07:56;2.30;;;2.10;;
908;SDS011;441;51.192;6.788;2022-10-16T18:10:25;2.50;;;1.87;;
908;SDS011;441;51.192;6.788;2022-10-16T18:12:51;2.17;;;1.97;;
908;SDS011;441;51.192;6.788;2022-10-16T18:15:18;1.70;;;1.60;;
908;SDS011;441;51.192;6.788;2022-10-16T18:17:45;2.37;;;2.20;;
908;SDS011;441;51.192;6.788;2022-10-16T18:20:12;2.50;;;1.93;;
908;SDS011;441;51.192;6.788;2022-10-16T18:22:39;2.50;;;2.17;;
908;SDS011;441;51.192;6.788;2022-10-16T18:25:06;3.63;;;2.50;;
908;SDS011;441;51.192;6.788;2022-10-16T18:27:35;2.00;;;1.90;;
908;SDS011;441;51.192;6.788;2022-10-16T18:30:02;2.70;;;2.50;;
908;SDS011;441;51.192;6.788;2022-10-16T18:32:30;3.30;;;2.97;;
908;SDS011;441;51.192;6.788;2022-10-16T18:34:57;3.90;;;2.20;;
908;SDS011;441;51.192;6.788;2022-10-16T18:37:24;4.43;;;2.90;;
908;SDS011;441;51.192;6.788;2022-10-16T18:39:52;3.27;;;3.00;;
908;SDS011;441;51.192;6.788;2022-10-16T18:42:19;2.57;;;2.43;;
908;SDS011;441;51.192;6.788;2022-10-16T18:44:47;2.43;;;2.20;;
908;SDS011;441;51.192;6.788;2022-10-16T18:47:14;4.70;;;2.60;;
908;SDS011;441;51.192;6.788;2022-10-16T18:49:41;3.60;;;3.30;;
908;SDS011;441;51.192;6.788;2022-10-16T18:52:10;4.07;;;3.60;;
908;SDS011;441;51.192;6.788;2022-10-16T18:54:37;4.73;;;3.33;;
908;SDS011;441;51.192;6.788;2022-10-16T18:57:04;3.67;;;3.37;;
908;SDS011;441;51.192;6.788;2022-10-16T18:59:32;3.07;;;2.80;;
908;SDS011;441;51.192;6.788;2022-10-16T19:02:00;5.57;;;2.70;;
908;SDS011;441;51.192;6.788;2022-10-16T19:04:27;4.13;;;3.63;;
908;SDS011;441;51.192;6.788;2022-10-16T19:06:54;2.70;;;2.50;;
908;SDS011;441;51.192;6.788;2022-10-16T19:09:22;3.07;;;2.80;;
908;SDS011;441;51.192;6.788;2022-10-16T19:11:49;2.80;;;2.33;;
908;SDS011;441;51.192;6.788;2022-10-16T19:14:16;3.23;;;2.60;;
908;SDS011;441;51.192;6.788;2022-10-16T19:16:45;4.07;;;2.60;;
908;SDS011;441;51.192;6.788;2022-10-16T19:19:15;2.30;;;2.10;;
908;SDS011;441;51.192;6.788;2022-10-16T19:21:43;3.37;;;3.07;;
908;SDS011;441;51.192;6.788;2022-10-16T19:24:12;2.83;;;2.63;;
908;SDS011;441;51.192;6.788;2022-10-16T19:26:40;2.80;;;2.60;;
908;SDS011;441;51.192;6.788;2022-10-16T19:29:07;3.87;;;2.47;;
908;SDS011;441;51.192;6.788;2022-10-16T19:31:34;1.90;;;1.80;;
908;SDS011;441;51.192;6.788;2022-10-16T19:34:02;2.43;;;2.23;;
908;SDS011;441;51.192;6.788;2022-10-16T19:36:32;2.60;;;2.40;;
908;SDS011;441;51.192;6.788;2022-10-16T19:39:01;3.13;;;2.10;;
908;SDS011;441;51.192;6.788;2022-10-16T19:41:29;2.90;;;2.17;;
908;SDS011;441;51.192;6.788;2022-10-16T19:43:59;3.30;;;3.00;;
908;SDS011;441;51.192;6.788;2022-10-16T19:46:26;2.83;;;2.40;;
908;SDS011;441;51.192;6.788;2022-10-16T19:48:54;2.13;;;2.03;;
908;SDS011;441;51.192;6.788;2022-10-16T19:51:22;3.93;;;2.30;;
908;SDS011;441;51.192;6.788;2022-10-16T19:53:54;1.50;;;1.40;;
908;SDS011;441;51.192;6.788;2022-10-16T19:56:22;3.17;;;1.70;;
908;SDS011;441;51.192;6.788;2022-10-16T19:58:50;1.67;;;1.53;;
908;SDS011;441;51.192;6.788;2022-10-16T20:01:18;1.83;;;1.73;;
908;SDS011;441;51.192;6.788;2022-10-16T20:03:46;1.87;;;1.77;;
908;SDS011;441;51.192;6.788;2022-10-16T20:06:14;2.13;;;1.93;;
908;SDS011;441;51.192;6.788;2022-10-16T20:08:43;1.77;;;1.60;;
908;SDS011;441;51.192;6.788;2022-10-16T20:11:14;5.70;;;2.27;;
908;SDS011;441;51.192;6.788;2022-10-16T20:13:41;2.67;;;1.87;;
908;SDS011;441;51.192;6.788;2022-10-16T20:16:09;2.27;;;1.60;;
908;SDS011;441;51.192;6.788;2022-10-16T20:18:37;1.77;;;1.67;;
908;SDS011;441;51.192;6.788;2022-10-16T20:21:07;3.43;;;2.13;;
908;SDS011;441;51.192;6.788;2022-10-16T20:23:35;1.87;;;1.60;;
908;SDS011;441;51.192;6.788;2022-10-16T20:26:01;1.20;;;1.13;;
908;SDS011;441;51.192;6.788;2022-10-16T20:28:30;1.37;;;1.30;;
908;SDS011;441;51.192;6.788;2022-10-16T20:30:57;2.07;;;1.30;;
908;SDS011;441;51.192;6.788;2022-10-16T20:33:24;2.10;;;1.87;;
908;SDS011;441;51.192;6.788;2022-10-16T20:35:51;1.60;;;1.50;;
908;SDS011;441;51.192;6.788;2022-10-16T20:38:18;1.37;;;1.20;;
908;SDS011;441;51.192;6.788;2022-10-16T20:40:45;1.30;;;1.30;;
908;SDS011;441;51.192;6.788;2022-10-16T20:43:13;1.63;;;0.77;;
908;SDS011;441;51.192;6.788;2022-10-16T20:45:43;0.87;;;0.87;;
908;SDS011;441;51.192;6.788;2022-10-16T20:48:11;1.20;;;1.10;;
908;SDS011;441;51.192;6.788;2022-10-16T20:50:40;1.20;;;1.10;;
908;SDS011;441;51.192;6.788;2022-10-16T20:53:07;1.80;;;1.43;;
908;SDS011;441;51.192;6.788;2022-10-16T20:55:34;1.50;;;1.40;;
908;SDS011;441;51.192;6.788;2022-10-16T20:58:02;1.20;;;1.10;;
908;SDS011;441;51.192;6.788;2022-10-16T21:00:29;0.83;;;0.83;;
908;SDS011;441;51.192;6.788;2022-10-16T21:02:58;1.50;;;1.40;;
908;SDS011;441;51.192;6.788;2022-10-16T21:05:25;1.30;;;1.20;;
908;SDS011;441;51.192;6.788;2022-10-16T21:07:53;1.30;;;0.97;;
908;SDS011;441;51.192;6.788;2022-10-16T21:10:20;1.00;;;1.00;;
908;SDS011;441;51.192;6.788;2022-10-16T21:12:47;2.47;;;1.10;;
908;SDS011;441;51.192;6.788;2022-10-16T21:15:13;1.20;;;1.10;;
908;SDS011;441;51.192;6.788;2022-10-16T21:17:40;1.33;;;1.33;;
908;SDS011;441;51.192;6.788;2022-10-16T21:20:09;1.17;;;1.17;;
908;SDS011;441;51.192;6.788;2022-10-16T21:22:35;0.90;;;0.90;;
908;SDS011;441;51.192;6.788;2022-10-16T21:25:03;2.40;;;1.23;;
908;SDS011;441;51.192;6.788;2022-10-16T21:27:34;1.40;;;1.30;;
908;SDS011;441;51.192;6.788;2022-10-16T21:30:02;1.00;;;0.97;;
908;SDS011;441;51.192;6.788;2022-10-16T21:32:29;1.00;;;1.00;;
908;SDS011;441;51.192;6.788;2022-10-16T21:34:55;1.27;;;1.17;;
908;SDS011;441;51.192;6.788;2022-10-16T21:37:24;1.03;;;1.03;;
908;SDS011;441;51.192;6.788;2022-10-16T21:39:50;1.37;;;1.27;;
908;SDS011;441;51.192;6.788;2022-10-16T21:42:20;1.80;;;1.03;;
908;SDS011;441;51.192;6.788;2022-10-16T21:44:47;1.27;;;0.80;;
908;SDS011;441;51.192;6.788;2022-10-16T21:47:13;1.00;;;0.70;;
908;SDS011;441;51.192;6.788;2022-10-16T21:49:40;1.30;;;0.90;;
908;SDS011;441;51.192;6.788;2022-10-16T21:52:07;0.90;;;0.80;;
908;SDS011;441;51.192;6.788;2022-10-16T21:54:35;1.77;;;1.10;;
908;SDS011;441;51.192;6.788;2022-10-16T21:57:02;1.00;;;1.00;;
908;SDS011;441;51.192;6.788;2022-10-16T21:59:29;0.90;;;0.90;;
908;SDS011;441;51.192;6.788;2022-10-16T22:01:56;1.83;;;1.73;;
908;SDS011;441;51.192;6.788;2022-10-16T22:04:24;1.00;;;1.00;;
908;SDS011;441;51.192;6.788;2022-10-16T22:06:51;0.83;;;0.83;;
908;SDS011;441;51.192;6.788;2022-10-16T22:09:18;1.10;;;1.00;;
908;SDS011;441;51.192;6.788;2022-10-16T22:11:46;1.10;;;1.10;;
908;SDS011;441;51.192;6.788;2022-10-16T22:14:15;1.17;;;1.10;;
908;SDS011;441;51.192;6.788;2022-10-16T22:16:43;0.90;;;0.80;;
908;SDS011;441;51.192;6.788;2022-10-16T22:19:11;0.80;;;0.70;;
908;SDS011;441;51.192;6.788;2022-10-16T22:21:39;1.20;;;1.10;;
908;SDS011;441;51.192;6.788;2022-10-16T22:24:07;0.90;;;0.90;;
908;SDS011;441;51.192;6.788;2022-10-16T22:26:35;0.93;;;0.90;;
908;SDS011;441;51.192;6.788;2022-10-16T22:29:04;1.13;;;1.03;;
908;SDS011;441;51.192;6.788;2022-10-16T22:31:32;1.17;;;1.13;;
908;SDS011;441;51.192;6.788;2022-10-16T22:34:00;0.97;;;0.87;;
908;SDS011;441;51.192;6.788;2022-10-16T22:36:28;2.07;;;1.97;;
908;SDS011;441;51.192;6.788;2022-10-16T22:38:56;2.43;;;1.23;;
908;SDS011;441;51.192;6.788;2022-10-16T22:41:23;1.00;;;1.00;;
908;SDS011;441;51.192;6.788;2022-10-16T22:43:51;0.80;;;0.80;;
908;SDS011;441;51.192;6.788;2022-10-16T22:46:20;0.73;;;0.73;;
908;SDS011;441;51.192;6.788;2022-10-16T22:48:48;0.80;;;0.80;;
908;SDS011;441;51.192;6.788;2022-10-16T22:51:15;2.70;;;2.40;;
908;SDS011;441;51.192;6.788;2022-10-16T22:53:43;0.70;;;0.70;;
908;SDS011;441;51.192;6.788;2022-10-16T22:56:11;0.80;;;0.80;;
908;SDS011;441;51.192;6.788;2022-10-16T22:58:38;0.70;;;0.70;;
908;SDS011;441;51.192;6.788;2022-10-16T23:01:09;1.20;;;1.20;;
908;SDS011;441;51.192;6.788;2022-10-16T23:03:38;0.80;;;0.80;;
908;SDS011;441;51.192;6.788;2022-10-16T23:06:05;1.47;;;1.37;;
908;SDS011;441;51.192;6.788;2022-10-16T23:08:32;1.40;;;1.30;;
908;SDS011;441;51.192;6.788;2022-10-16T23:10:59;0.97;;;0.90;;
908;SDS011;441;51.192;6.788;2022-10-16T23:13:30;0.80;;;0.80;;
908;SDS011;441;51.192;6.788;2022-10-16T23:15:57;0.90;;;0.90;;
908;SDS011;441;51.192;6.788;2022-10-16T23:18:23;1.27;;;1.00;;
908;SDS011;441;51.192;6.788;2022-10-16T23:20:52;1.20;;;1.07;;
908;SDS011;441;51.192;6.788;2022-10-16T23:23:18;0.70;;;0.70;;
908;SDS011;441;51.192;6.788;2022-10-16T23:25:45;0.90;;;0.90;;
908;SDS011;441;51.192;6.788;2022-10-16T23:28:12;0.70;;;0.70;;
908;SDS011;441;51.192;6.788;2022-10-16T23:30:40;1.20;;;1.20;;
908;SDS011;441;51.192;6.788;2022-10-16T23:33:06;1.10;;;1.10;;
908;SDS011;441;51.192;6.788;2022-10-16T23:35:33;1.10;;;1.10;;
908;SDS011;441;51.192;6.788;2022-10-16T23:38:05;1.00;;;0.97;;
908;SDS011;441;51.192;6.788;2022-10-16T23:40:32;1.30;;;1.20;;
908;SDS011;441;51.192;6.788;2022-10-16T23:42:58;1.23;;;1.20;;
908;SDS011;441;51.192;6.788;2022-10-16T23:45:25;1.00;;;1.00;;
908;SDS011;441;51.192;6.788;2022-10-16T23:47:52;0.80;;;0.80;;
908;SDS011;441;51.192;6.788;2022-10-16T23:50:19;0.90;;;0.90;;
908;SDS011;441;51.192;6.788;2022-10-16T23:52:46;1.17;;;1.07;;
908;SDS011;441;51.192;6.788;2022-10-16T23:55:14;0.97;;;0.97;;
908;SDS011;441;51.192;6.788;2022-10-16T23:57:41;0.97;;;0.93;;
